createdAt,value
2018-08-10T09:04:17.259Z,3180.00
2018-08-10T09:05:17.243Z,3228.00
2018-08-10T09:06:17.245Z,2916.00
2018-08-10T09:07:17.255Z,2316.00
2018-08-10T09:08:17.256Z,1196.00
2018-08-10T09:09:17.261Z,1084.00
2018-08-10T09:10:17.268Z,892.00
2018-08-10T09:11:17.281Z,888.00
2018-08-10T09:12:17.279Z,3116.00
2018-08-10T09:13:17.285Z,912.00
2018-08-10T09:14:17.298Z,868.00
2018-08-10T09:15:17.299Z,812.00
2018-08-10T09:16:17.302Z,3124.00
2018-08-10T09:17:17.443Z,3184.00
2018-08-10T09:18:17.313Z,3280.00
2018-08-10T09:19:17.325Z,908.00
2018-08-10T09:20:17.411Z,2856.00
2018-08-10T09:21:17.335Z,3096.00
2018-08-10T09:22:17.339Z,1288.00
2018-08-10T09:23:17.363Z,1160.00
2018-08-10T09:24:17.352Z,3292.00
2018-08-10T09:25:17.357Z,3340.00
2018-08-10T09:26:17.399Z,3384.00
2018-08-10T09:27:17.370Z,3372.00
2018-08-10T09:28:17.378Z,3432.00
2018-08-10T09:29:17.382Z,940.00
2018-08-10T09:30:17.390Z,920.00
2018-08-10T09:31:17.396Z,3036.00
2018-08-10T09:32:17.401Z,1028.00
2018-08-10T09:33:17.406Z,1084.00
2018-08-10T09:34:17.418Z,908.00
2018-08-10T09:35:17.423Z,2408.00
2018-08-10T09:36:17.432Z,3096.00
2018-08-10T09:37:17.434Z,3068.00
2018-08-10T09:38:17.441Z,3272.00
2018-08-10T09:39:17.448Z,3208.00
2018-08-10T09:40:17.455Z,888.00
2018-08-10T09:41:17.458Z,3032.00
2018-08-10T09:42:17.490Z,3156.00
2018-08-10T09:43:17.472Z,3304.00
2018-08-10T09:44:17.480Z,3364.00
2018-08-10T09:45:17.541Z,3232.00
2018-08-10T09:46:17.491Z,3264.00
2018-08-10T09:47:17.499Z,3296.00
2018-08-10T09:48:17.506Z,1048.00
2018-08-10T09:49:17.515Z,976.00
2018-08-10T09:50:17.518Z,1696.00
2018-08-10T09:51:17.525Z,3088.00
2018-08-10T09:52:17.534Z,1000.00
2018-08-10T09:53:17.539Z,3228.00
2018-08-10T09:54:17.547Z,824.00
2018-08-10T09:55:17.554Z,812.00
2018-08-10T09:56:17.560Z,888.00
2018-08-10T09:57:17.567Z,976.00
2018-08-10T09:58:17.579Z,3440.00
2018-08-10T09:59:17.610Z,996.00
2018-08-10T10:00:17.620Z,988.00
2018-08-10T10:01:17.593Z,1000.00
2018-08-10T10:02:17.599Z,1220.00
2018-08-10T10:03:17.607Z,1132.00
2018-08-10T10:04:17.613Z,3320.00
2018-08-10T10:05:17.619Z,3228.00
2018-08-10T10:06:17.626Z,3224.00
2018-08-10T10:07:17.633Z,3356.00
2018-08-10T10:08:17.639Z,1056.00
2018-08-10T10:09:17.648Z,3504.00
2018-08-10T10:10:17.653Z,3504.00
2018-08-10T10:11:17.657Z,3496.00
2018-08-10T10:12:17.667Z,3568.00
2018-08-10T10:13:17.672Z,3512.00
2018-08-10T10:14:17.678Z,3308.00
2018-08-10T10:15:17.686Z,3180.00
2018-08-10T10:16:17.692Z,3272.00
2018-08-10T10:17:17.744Z,3296.00
2018-08-10T10:18:17.708Z,2704.00
2018-08-10T10:19:17.713Z,3484.00
2018-08-10T10:20:17.727Z,3464.00
2018-08-10T10:21:17.729Z,3444.00
2018-08-10T10:22:17.737Z,988.00
2018-08-10T10:23:17.744Z,1060.00
2018-08-10T10:24:17.753Z,1144.00
2018-08-10T10:25:17.760Z,796.00
2018-08-10T10:26:17.765Z,776.00
2018-08-10T10:27:17.865Z,780.00
2018-08-10T10:28:17.780Z,860.00
2018-08-10T10:29:17.789Z,2456.00
2018-08-10T10:30:17.797Z,948.00
2018-08-10T10:31:17.806Z,856.00
2018-08-10T10:32:17.811Z,708.00
2018-08-10T10:33:17.819Z,692.00
2018-08-10T10:34:17.829Z,772.00
2018-08-10T10:35:17.836Z,3272.00
2018-08-10T10:36:17.842Z,1116.00
2018-08-10T10:37:17.852Z,1076.00
2018-08-10T10:38:17.856Z,832.00
2018-08-10T10:39:17.864Z,836.00
2018-08-10T10:40:17.874Z,760.00
2018-08-10T10:41:17.908Z,680.00
2018-08-10T10:42:17.885Z,672.00
2018-08-10T10:43:17.893Z,780.00
2018-08-10T10:44:17.902Z,896.00
2018-08-10T10:45:17.907Z,1072.00
2018-08-10T10:46:17.913Z,2604.00
2018-08-10T10:47:17.975Z,1040.00
2018-08-10T10:48:17.927Z,1580.00
2018-08-10T10:49:17.934Z,924.00
2018-08-10T10:50:17.941Z,864.00
2018-08-10T10:51:17.951Z,860.00
2018-08-10T10:52:17.957Z,864.00
2018-08-10T10:53:17.960Z,876.00
2018-08-10T10:54:17.971Z,792.00
2018-08-10T10:55:17.978Z,2300.00
2018-08-10T10:56:17.982Z,904.00
2018-08-10T10:57:17.987Z,1108.00
2018-08-10T10:58:18.001Z,2924.00
2018-08-10T10:59:18.004Z,2888.00
2018-08-10T11:00:18.015Z,2888.00
2018-08-10T11:01:18.018Z,2880.00
2018-08-10T11:02:18.034Z,2876.00
2018-08-10T11:03:18.042Z,2784.00
2018-08-10T11:04:18.038Z,2752.00
2018-08-10T11:05:18.043Z,2772.00
2018-08-10T11:06:18.091Z,2756.00
2018-08-10T11:07:18.081Z,2796.00
2018-08-10T11:08:18.065Z,2756.00
2018-08-10T11:09:18.081Z,2696.00
2018-08-10T11:10:18.086Z,2640.00
2018-08-10T11:11:18.092Z,2588.00
2018-08-10T11:12:18.095Z,2660.00
2018-08-10T11:13:18.099Z,2680.00
2018-08-10T11:14:18.113Z,2704.00
2018-08-10T11:15:18.116Z,2660.00
2018-08-10T11:16:18.125Z,2624.00
2018-08-10T11:17:18.133Z,2572.00
2018-08-10T11:18:18.141Z,2632.00
2018-08-10T11:19:18.147Z,2672.00
2018-08-10T11:20:18.167Z,2592.00
2018-08-10T11:21:18.164Z,2640.00
2018-08-10T11:22:18.173Z,1368.00
2018-08-10T11:23:18.183Z,2656.00
2018-08-10T11:24:18.188Z,2648.00
2018-08-10T11:25:18.286Z,2596.00
2018-08-10T11:26:18.206Z,2616.00
2018-08-10T11:27:18.213Z,2388.00
2018-08-10T11:28:18.223Z,2468.00
2018-08-10T11:29:18.229Z,2616.00
2018-08-10T11:30:18.258Z,2576.00
2018-08-10T11:31:18.247Z,2496.00
2018-08-10T11:32:18.256Z,2548.00
2018-08-10T11:33:18.268Z,2552.00
2018-08-10T11:34:18.273Z,2040.00
2018-08-10T11:35:18.280Z,1000.00
2018-08-10T11:36:18.289Z,2360.00
2018-08-10T11:37:18.300Z,2364.00
2018-08-10T11:38:18.318Z,2584.00
2018-08-10T11:39:18.316Z,1128.00
2018-08-10T11:40:18.324Z,1020.00
2018-08-10T11:41:18.334Z,1056.00
2018-08-10T11:42:18.344Z,1860.00
2018-08-10T11:43:18.354Z,1180.00
2018-08-10T11:44:18.362Z,1264.00
2018-08-10T11:45:18.367Z,2472.00
2018-08-10T11:46:18.376Z,2456.00
2018-08-10T11:47:18.382Z,2452.00
2018-08-10T11:48:18.395Z,2336.00
2018-08-10T11:49:18.400Z,2380.00
2018-08-10T11:50:18.408Z,2348.00
2018-08-10T11:51:18.416Z,2348.00
2018-08-10T11:52:18.425Z,2328.00
2018-08-10T11:53:18.434Z,2288.00
2018-08-10T11:54:18.441Z,1880.00
2018-08-10T11:55:18.450Z,2276.00
2018-08-10T11:56:18.459Z,2336.00
2018-08-10T11:57:18.478Z,2360.00
2018-08-10T11:58:18.474Z,2356.00
2018-08-10T11:59:18.485Z,1440.00
2018-08-10T12:00:18.493Z,1004.00
2018-08-10T12:01:18.499Z,1444.00
2018-08-10T12:02:18.506Z,1148.00
2018-08-10T12:03:18.519Z,2640.00
2018-08-10T12:04:18.525Z,1868.00
2018-08-10T12:05:18.531Z,2708.00
2018-08-10T12:06:18.622Z,1344.00
2018-08-10T12:07:18.548Z,2736.00
2018-08-10T12:08:18.557Z,1828.00
2018-08-10T12:09:18.565Z,2808.00
2018-08-10T12:10:18.575Z,2840.00
2018-08-10T12:11:18.582Z,2136.00
2018-08-10T12:12:18.594Z,1372.00
2018-08-10T12:13:18.599Z,1480.00
2018-08-10T12:14:18.608Z,2628.00
2018-08-10T12:15:18.617Z,2092.00
2018-08-10T12:16:18.625Z,2576.00
2018-08-10T12:17:18.633Z,2224.00
2018-08-10T12:18:18.642Z,1820.00
2018-08-10T12:19:18.651Z,1440.00
2018-08-10T12:20:18.668Z,1244.00
2018-08-10T12:21:18.668Z,2324.00
2018-08-10T12:22:18.682Z,1048.00
2018-08-10T12:23:18.688Z,1004.00
2018-08-10T12:24:18.694Z,1048.00
2018-08-10T12:25:26.378Z,1060.00
2018-08-10T12:27:23.196Z,1056.00
2018-08-10T12:28:13.122Z,1076.00
2018-08-10T12:29:13.132Z,1104.00
2018-08-10T12:30:13.195Z,1112.00
2018-08-10T12:31:13.151Z,1104.00
2018-08-10T12:32:13.160Z,1116.00
2018-08-10T12:33:13.163Z,1108.00
2018-08-10T12:34:13.171Z,1072.00
2018-08-10T12:35:13.187Z,1068.00
2018-08-10T12:36:13.188Z,1112.00
2018-08-10T12:37:13.196Z,1156.00
2018-08-10T12:38:13.227Z,1180.00
2018-08-10T12:39:13.211Z,1416.00
2018-08-10T12:40:13.223Z,2580.00
2018-08-10T12:41:13.229Z,1508.00
2018-08-10T12:42:13.235Z,1404.00
2018-08-10T12:43:13.255Z,1148.00
2018-08-10T12:44:13.257Z,1024.00
2018-08-10T12:45:13.269Z,956.00
2018-08-10T12:46:13.267Z,924.00
2018-08-10T12:47:13.276Z,896.00
2018-08-10T12:48:13.281Z,888.00
2018-08-10T12:49:13.323Z,876.00
2018-08-10T12:50:13.366Z,860.00
2018-08-10T12:51:13.305Z,800.00
2018-08-10T12:52:13.315Z,780.00
2018-08-10T12:53:13.324Z,752.00
2018-08-10T12:54:13.331Z,712.00
2018-08-10T12:55:13.344Z,660.00
2018-08-10T12:56:13.347Z,624.00
2018-08-10T12:57:13.353Z,592.00
2018-08-10T12:58:13.363Z,572.00
2018-08-10T12:59:13.369Z,556.00
2018-08-10T13:00:13.378Z,548.00
2018-08-10T13:01:13.382Z,584.00
2018-08-10T13:03:36.472Z,884.00
2018-08-10T13:04:37.259Z,1124.00
2018-08-10T13:05:47.505Z,2228.00
2018-08-10T13:07:40.951Z,1088.00
2018-08-10T13:08:30.999Z,1156.00
2018-08-10T13:09:38.129Z,1152.00
2018-08-10T13:11:25.320Z,1024.00
2018-08-10T13:14:18.785Z,920.00
2018-08-10T13:15:27.607Z,824.00
2018-08-10T13:17:13.268Z,744.00
2018-08-10T13:18:13.214Z,756.00
2018-08-10T13:19:13.216Z,712.00
2018-08-10T13:20:13.225Z,712.00
2018-08-10T13:21:13.233Z,728.00
2018-08-10T13:22:13.237Z,732.00
2018-08-10T13:23:13.245Z,748.00
2018-08-10T13:24:13.253Z,816.00
2018-08-10T13:26:47.192Z,876.00
2018-08-10T13:27:37.179Z,936.00
2018-08-10T13:28:37.182Z,996.00
2018-08-10T13:31:00.279Z,1032.00
2018-08-10T13:32:00.261Z,1084.00
2018-08-10T13:33:00.269Z,1160.00
2018-08-10T13:34:00.277Z,1212.00
2018-08-10T13:35:00.282Z,1060.00
2018-08-10T13:36:00.290Z,976.00
2018-08-10T13:37:00.297Z,920.00
2018-08-10T13:38:00.303Z,888.00
2018-08-10T13:39:00.329Z,876.00
2018-08-10T13:40:00.318Z,912.00
2018-08-10T13:41:00.411Z,940.00
2018-08-10T13:42:00.333Z,1312.00
2018-08-10T13:43:00.341Z,1200.00
2018-08-10T13:44:00.349Z,1180.00
2018-08-10T13:45:00.354Z,896.00
2018-08-10T13:46:00.361Z,896.00
2018-08-10T13:47:00.370Z,844.00
2018-08-10T13:48:00.380Z,936.00
2018-08-10T13:49:00.385Z,1316.00
2018-08-10T13:50:00.391Z,1400.00
2018-08-10T13:51:00.401Z,1872.00
2018-08-10T13:52:00.416Z,1812.00
2018-08-10T13:53:00.417Z,1988.00
2018-08-10T13:54:00.421Z,1840.00
2018-08-10T13:55:00.437Z,1048.00
2018-08-10T13:56:00.436Z,972.00
2018-08-10T13:57:00.443Z,1068.00
2018-08-10T13:58:00.460Z,1236.00
2018-08-10T13:59:00.459Z,1624.00
2018-08-10T14:00:00.469Z,1760.00
2018-08-10T14:01:00.476Z,1804.00
2018-08-10T14:02:00.484Z,1204.00
2018-08-10T14:03:00.490Z,1244.00
2018-08-10T14:04:00.499Z,1820.00
2018-08-10T14:06:33.650Z,1952.00
2018-08-10T14:07:23.925Z,1956.00
2018-08-10T14:08:23.670Z,1964.00
2018-08-10T14:09:23.606Z,1924.00
2018-08-10T14:10:23.621Z,1732.00
2018-08-10T14:11:23.628Z,1892.00
2018-08-10T14:12:23.630Z,1188.00
2018-08-10T14:13:23.639Z,868.00
2018-08-10T14:14:23.643Z,904.00
2018-08-10T14:15:23.651Z,1008.00
2018-08-10T14:16:23.661Z,1308.00
2018-08-10T14:17:23.668Z,976.00
2018-08-10T14:18:23.679Z,908.00
2018-08-10T14:19:24.063Z,1620.00
2018-08-10T14:20:23.693Z,1592.00
2018-08-10T14:21:23.701Z,1528.00
2018-08-10T14:22:23.709Z,1484.00
2018-08-10T14:23:23.717Z,1480.00
2018-08-10T14:24:23.726Z,1184.00
2018-08-10T14:25:23.738Z,1420.00
2018-08-10T14:26:23.766Z,1384.00
2018-08-10T14:27:23.761Z,1332.00
2018-08-10T14:28:23.764Z,1216.00
2018-08-10T14:29:23.773Z,1312.00
2018-08-10T14:30:23.774Z,1180.00
2018-08-10T14:31:23.783Z,584.00
2018-08-10T14:32:23.792Z,452.00
2018-08-10T14:33:23.813Z,512.00
2018-08-10T14:34:23.805Z,524.00
2018-08-10T14:35:23.816Z,632.00
2018-08-10T14:36:23.823Z,572.00
2018-08-10T14:37:23.829Z,572.00
2018-08-10T14:38:23.838Z,568.00
2018-08-10T14:39:23.848Z,496.00
2018-08-10T14:40:23.857Z,468.00
2018-08-10T14:41:23.932Z,464.00
2018-08-10T14:42:23.869Z,484.00
2018-08-10T14:43:23.882Z,556.00
2018-08-10T14:44:23.886Z,580.00
2018-08-10T14:45:23.893Z,576.00
2018-08-10T14:46:23.900Z,624.00
2018-08-10T14:47:23.909Z,636.00
2018-08-10T14:48:23.916Z,696.00
2018-08-10T14:49:23.922Z,768.00
2018-08-10T14:50:23.935Z,844.00
2018-08-10T14:51:23.939Z,812.00
2018-08-10T14:52:23.947Z,780.00
2018-08-10T14:53:23.954Z,764.00
2018-08-10T14:54:23.963Z,716.00
2018-08-10T14:55:23.972Z,652.00
2018-08-10T14:56:23.980Z,632.00
2018-08-10T14:57:23.985Z,676.00
2018-08-10T14:58:23.993Z,692.00
2018-08-10T14:59:24.000Z,708.00
2018-08-10T15:00:24.009Z,760.00
2018-08-10T15:01:24.013Z,804.00
2018-08-10T15:02:24.023Z,828.00
2018-08-10T15:03:24.030Z,848.00
2018-08-10T15:04:24.037Z,836.00
2018-08-10T15:06:56.176Z,816.00
2018-08-10T15:09:20.291Z,1412.00
2018-08-10T15:10:11.040Z,940.00
2018-08-10T15:11:10.233Z,836.00
2018-08-10T15:12:10.430Z,912.00
2018-08-10T15:13:10.292Z,916.00
2018-08-10T15:14:10.298Z,868.00
2018-08-10T15:15:10.268Z,1368.00
2018-08-10T15:16:19.342Z,1360.00
2018-08-10T15:18:13.760Z,1380.00
2018-08-10T15:19:03.692Z,1352.00
2018-08-10T15:21:26.762Z,1296.00
2018-08-10T15:22:26.764Z,1160.00
2018-08-10T15:23:26.768Z,716.00
2018-08-10T15:24:26.776Z,1180.00
2018-08-10T15:25:26.787Z,1236.00
2018-08-10T15:26:26.792Z,808.00
2018-08-10T15:27:26.800Z,1184.00
2018-08-10T15:28:26.807Z,1160.00
2018-08-10T15:29:26.819Z,1112.00
2018-08-10T15:30:26.823Z,1068.00
2018-08-10T15:31:26.830Z,1104.00
2018-08-10T15:32:26.842Z,976.00
2018-08-10T15:33:26.846Z,976.00
2018-08-10T15:34:26.855Z,948.00
2018-08-10T15:35:26.861Z,952.00
2018-08-10T15:36:26.871Z,384.00
2018-08-10T15:37:26.880Z,404.00
2018-08-10T15:38:26.931Z,380.00
2018-08-10T15:39:26.891Z,408.00
2018-08-10T15:40:26.900Z,884.00
2018-08-10T15:41:26.912Z,400.00
2018-08-10T15:42:26.915Z,384.00
2018-08-10T15:43:26.959Z,392.00
2018-08-10T15:44:26.930Z,876.00
2018-08-10T15:45:26.939Z,748.00
2018-08-10T15:46:26.946Z,904.00
2018-08-10T15:47:26.954Z,916.00
2018-08-10T15:48:26.962Z,692.00
2018-08-10T15:49:26.972Z,456.00
2018-08-10T15:50:26.983Z,432.00
2018-08-10T15:51:26.986Z,404.00
2018-08-10T15:52:26.994Z,388.00
2018-08-10T15:53:27.004Z,392.00
2018-08-10T15:54:27.008Z,408.00
2018-08-10T15:55:27.016Z,408.00
2018-08-10T15:56:27.028Z,392.00
2018-08-10T15:57:27.033Z,376.00
2018-08-10T15:58:27.039Z,368.00
2018-08-10T15:59:27.048Z,364.00
2018-08-10T16:00:27.055Z,360.00
2018-08-10T16:01:27.062Z,372.00
2018-08-10T16:02:27.072Z,712.00
2018-08-10T16:03:27.080Z,452.00
2018-08-10T16:04:27.082Z,396.00
2018-08-10T16:05:27.091Z,372.00
2018-08-10T16:06:27.097Z,368.00
2018-08-10T16:07:27.105Z,372.00
2018-08-10T16:08:27.115Z,376.00
2018-08-10T16:09:27.120Z,380.00
2018-08-10T16:10:27.129Z,376.00
2018-08-10T16:11:27.135Z,372.00
2018-08-10T16:12:27.144Z,368.00
2018-08-10T16:15:00.287Z,364.00
2018-08-10T16:15:50.219Z,376.00
2018-08-10T16:16:50.225Z,376.00
2018-08-10T16:17:50.235Z,380.00
2018-08-10T16:18:50.237Z,392.00
2018-08-10T16:19:50.243Z,404.00
2018-08-10T16:20:50.253Z,404.00
2018-08-10T16:21:50.266Z,416.00
2018-08-10T16:22:50.268Z,416.00
2018-08-10T16:23:50.273Z,420.00
2018-08-10T16:24:50.283Z,428.00
2018-08-10T16:25:50.289Z,440.00
2018-08-10T16:26:50.297Z,440.00
2018-08-10T16:27:50.305Z,428.00
2018-08-10T16:28:50.311Z,416.00
2018-08-10T16:29:50.320Z,408.00
2018-08-10T16:32:13.421Z,416.00
2018-08-10T16:33:13.393Z,404.00
2018-08-10T16:34:13.401Z,404.00
2018-08-10T16:35:13.408Z,400.00
2018-08-10T16:36:13.415Z,416.00
2018-08-10T16:37:13.425Z,428.00
2018-08-10T16:38:13.428Z,436.00
2018-08-10T16:39:13.437Z,436.00
2018-08-10T16:40:13.443Z,424.00
2018-08-10T16:41:13.449Z,416.00
2018-08-10T16:42:13.456Z,484.00
2018-08-10T16:43:13.467Z,424.00
2018-08-10T16:44:13.472Z,396.00
2018-08-10T16:45:13.483Z,372.00
2018-08-10T16:46:13.485Z,344.00
2018-08-10T16:47:13.504Z,332.00
2018-08-10T16:48:13.501Z,336.00
2018-08-10T16:49:13.510Z,308.00
2018-08-10T16:50:13.515Z,292.00
2018-08-10T16:51:13.523Z,292.00
2018-08-10T16:52:13.530Z,324.00
2018-08-10T16:53:13.539Z,376.00
2018-08-10T16:54:13.546Z,472.00
2018-08-10T16:55:13.550Z,472.00
2018-08-10T16:56:13.557Z,364.00
2018-08-10T16:57:13.591Z,476.00
2018-08-10T16:58:13.576Z,476.00
2018-08-10T16:59:13.580Z,472.00
2018-08-10T17:00:13.588Z,480.00
2018-08-10T17:01:13.594Z,468.00
2018-08-10T17:02:13.603Z,460.00
2018-08-10T17:03:13.607Z,464.00
2018-08-10T17:04:13.615Z,468.00
2018-08-10T17:05:13.658Z,300.00
2018-08-10T17:06:13.630Z,440.00
2018-08-10T17:07:13.641Z,432.00
2018-08-10T17:08:13.645Z,484.00
2018-08-10T17:09:13.652Z,496.00
2018-08-10T17:10:13.660Z,524.00
2018-08-10T17:11:13.666Z,496.00
2018-08-10T17:12:13.677Z,496.00
2018-08-10T17:13:13.682Z,476.00
2018-08-10T17:14:13.707Z,384.00
2018-08-10T17:15:13.698Z,384.00
2018-08-10T17:16:13.712Z,404.00
2018-08-10T17:17:13.712Z,384.00
2018-08-10T17:18:13.719Z,384.00
2018-08-10T17:19:13.731Z,344.00
2018-08-10T17:20:13.734Z,296.00
2018-08-10T17:21:13.741Z,272.00
2018-08-10T17:22:13.750Z,260.00
2018-08-10T17:23:13.757Z,256.00
2018-08-10T17:24:13.763Z,308.00
2018-08-10T17:25:13.772Z,236.00
2018-08-10T17:26:13.777Z,240.00
2018-08-10T17:27:13.843Z,248.00
2018-08-10T17:28:22.438Z,260.00
2018-08-10T17:30:08.510Z,344.00
2018-08-10T17:31:08.211Z,336.00
2018-08-10T17:32:08.961Z,344.00
2018-08-10T17:33:08.234Z,388.00
2018-08-10T17:34:08.233Z,380.00
2018-08-10T17:36:43.927Z,372.00
2018-08-10T17:39:11.605Z,360.00
2018-08-10T17:40:11.264Z,376.00
2018-08-10T17:41:11.263Z,372.00
2018-08-10T17:46:48.107Z,304.00
2018-08-10T17:47:47.577Z,292.00
2018-08-10T17:50:20.328Z,276.00
2018-08-10T17:51:11.666Z,272.00
